Time;durP1;ratioP1;P1;durP2;ratioP2;P2;SDS_P1;SDS_P2;PMS_P1;PMS_P2;Temp;Humidity;BMP_temperature;BMP_pressure;BME280_temperature;BME280_humidity;BME280_pressure;Samples;Min_cycle;Max_cycle;Signal;HPM_P1;HPM_P2
2022/11/14 00:02:15;;;;;;;45.72;22.38;;;6.20;99.90;;;;;;5065336;28;20029;-70
2022/11/14 00:04:45;;;;;;;43.65;21.10;;;6.30;99.90;;;;;;5049796;28;20084;-70
2022/11/14 00:07:10;;;;;;;40.55;20.25;;;6.30;99.90;;;;;;5058042;28;20048;-71
2022/11/14 00:09:37;;;;;;;40.75;20.88;;;6.30;99.90;;;;;;5051136;28;20132;-70
2022/11/14 00:12:03;;;;;;;40.10;20.63;;;6.30;99.90;;;;;;5053680;28;20542;-70
2022/11/14 00:14:29;;;;;;;40.60;21.40;;;6.30;99.90;;;;;;5035273;28;20404;-71
2022/11/14 00:16:55;;;;;;;37.85;20.85;;;6.30;99.90;;;;;;5034471;28;20044;-70
2022/11/14 00:19:21;;;;;;;39.20;20.23;;;6.30;99.90;;;;;;5037568;28;20051;-71
2022/11/14 00:21:46;;;;;;;43.42;22.50;;;6.30;99.90;;;;;;5049857;28;20119;-70
2022/11/14 00:24:12;;;;;;;47.05;23.20;;;6.30;99.90;;;;;;5035280;28;20044;-70
2022/11/14 00:26:38;;;;;;;42.38;22.50;;;6.30;99.90;;;;;;5068864;28;20056;-69
2022/11/14 00:29:04;;;;;;;44.13;22.30;;;6.40;99.90;;;;;;5068975;28;20040;-70
2022/11/14 00:31:29;;;;;;;41.47;22.25;;;6.40;99.90;;;;;;5067466;28;20057;-70
2022/11/14 00:33:55;;;;;;;46.65;23.90;;;6.40;99.90;;;;;;5034473;28;20101;-70
2022/11/14 00:36:21;;;;;;;42.38;22.75;;;7.00;99.90;;;;;;5050217;28;20074;-69
2022/11/14 00:38:47;;;;;;;41.13;23.42;;;6.40;99.90;;;;;;5051583;28;20123;-69
2022/11/14 00:41:12;;;;;;;45.25;22.40;;;6.40;99.90;;;;;;5047229;28;20476;-70
2022/11/14 00:43:38;;;;;;;44.45;22.98;;;7.00;99.90;;;;;;5061930;28;20094;-69
2022/11/14 00:46:04;;;;;;;45.90;23.88;;;6.50;99.90;;;;;;5046863;28;20052;-69
2022/11/14 00:48:29;;;;;;;41.70;22.27;;;6.50;99.90;;;;;;5051793;28;21368;-69
2022/11/14 00:50:55;;;;;;;43.35;23.40;;;6.50;99.90;;;;;;5047435;28;20125;-70
2022/11/14 00:53:21;;;;;;;42.70;22.83;;;6.50;99.90;;;;;;5051657;28;20037;-68
2022/11/14 00:55:46;;;;;;;38.38;23.02;;;6.50;99.90;;;;;;5049402;28;20110;-68
2022/11/14 00:58:12;;;;;;;40.88;22.83;;;6.50;99.90;;;;;;5052200;28;20059;-68
2022/11/14 01:00:38;;;;;;;44.30;23.65;;;6.60;99.90;;;;;;5052964;28;20112;-68
2022/11/14 01:03:04;;;;;;;41.72;23.25;;;6.50;99.90;;;;;;5050429;28;20049;-68
2022/11/14 01:05:29;;;;;;;44.05;22.88;;;6.50;99.90;;;;;;5057121;28;20053;-69
2022/11/14 01:07:55;;;;;;;42.08;23.25;;;6.50;99.90;;;;;;5068397;28;20048;-69
2022/11/14 01:10:21;;;;;;;43.10;22.58;;;6.50;99.90;;;;;;5033429;28;20036;-69
2022/11/14 01:12:47;;;;;;;43.13;22.88;;;6.60;99.90;;;;;;5050234;28;20467;-68
2022/11/14 01:15:12;;;;;;;42.70;24.42;;;6.60;99.90;;;;;;5054513;28;20037;-69
2022/11/14 01:17:38;;;;;;;48.78;23.85;;;6.60;99.90;;;;;;5066479;28;20040;-69
2022/11/14 01:20:05;;;;;;;43.97;24.08;;;6.60;99.90;;;;;;5054388;28;20037;-68
2022/11/14 01:22:30;;;;;;;47.13;25.98;;;6.60;99.90;;;;;;5047860;28;20379;-69
2022/11/14 01:24:59;;;;;;;47.50;26.20;;;6.60;99.90;;;;;;5048418;28;20040;-68
2022/11/14 01:27:25;;;;;;;49.33;28.13;;;6.60;99.90;;;;;;5050598;28;20048;-68
2022/11/14 01:29:51;;;;;;;50.72;28.25;;;6.60;99.90;;;;;;5051089;28;20083;-68
2022/11/14 01:32:16;;;;;;;48.00;27.23;;;6.60;99.90;;;;;;5034438;28;20033;-69
2022/11/14 01:34:42;;;;;;;52.92;28.70;;;6.60;99.90;;;;;;5036397;28;20051;-70
2022/11/14 01:37:08;;;;;;;51.67;27.88;;;6.60;99.90;;;;;;5049767;28;20048;-70
2022/11/14 01:39:34;;;;;;;47.88;29.80;;;6.70;99.90;;;;;;5048544;28;20115;-69
2022/11/14 01:41:59;;;;;;;53.63;30.77;;;6.70;99.90;;;;;;5037638;28;20113;-71
2022/11/14 01:44:45;;;;;;;55.58;32.53;;;6.60;99.90;;;;;;5046853;28;20094;-70
2022/11/14 01:47:14;;;;;;;57.25;32.20;;;6.60;99.90;;;;;;5032359;28;20059;-71
2022/11/14 01:49:45;;;;;;;59.53;32.97;;;6.70;99.90;;;;;;5051266;28;20051;-70
2022/11/14 01:52:16;;;;;;;63.05;35.33;;;6.60;99.90;;;;;;5032235;28;20435;-68
2022/11/14 01:54:46;;;;;;;57.85;34.42;;;6.50;99.90;;;;;;5048957;28;20131;-69
2022/11/14 01:57:15;;;;;;;62.05;34.58;;;6.70;99.90;;;;;;5050214;28;20098;-68
2022/11/14 01:59:46;;;;;;;59.92;34.80;;;6.60;99.90;;;;;;5049928;28;20379;-68
2022/11/14 02:02:16;;;;;;;63.15;35.72;;;6.60;99.90;;;;;;5048150;28;20079;-68
2022/11/14 02:04:49;;;;;;;60.72;36.25;;;6.60;99.90;;;;;;5043550;28;20056;-68
2022/11/14 02:07:15;;;;;;;64.07;35.88;;;6.60;99.90;;;;;;5059844;28;20048;-68
2022/11/14 02:09:45;;;;;;;64.30;36.38;;;6.50;99.90;;;;;;5030205;28;20052;-69
2022/11/14 02:12:14;;;;;;;62.50;35.10;;;6.50;99.90;;;;;;5047948;28;20039;-69
2022/11/14 02:14:44;;;;;;;61.08;35.20;;;6.50;99.90;;;;;;5050253;28;20035;-69
2022/11/14 02:17:10;;;;;;;61.97;37.00;;;6.50;99.90;;;;;;5062376;28;20474;-69
2022/11/14 02:19:41;;;;;;;66.05;36.15;;;6.50;99.90;;;;;;5036036;28;20044;-69
2022/11/14 02:22:06;;;;;;;67.35;36.30;;;6.50;99.90;;;;;;5048558;28;20032;-69
2022/11/14 02:24:32;;;;;;;62.65;36.53;;;6.50;99.90;;;;;;5051142;28;20372;-69
2022/11/14 02:26:58;;;;;;;67.93;36.80;;;6.50;99.90;;;;;;5032845;28;20088;-69
2022/11/14 02:29:24;;;;;;;62.47;36.20;;;6.50;99.90;;;;;;5050695;28;20075;-69
2022/11/14 02:31:50;;;;;;;67.15;37.13;;;6.50;99.90;;;;;;5030785;28;20052;-68
2022/11/14 02:34:18;;;;;;;65.90;35.53;;;6.50;99.90;;;;;;5052123;28;20052;-69
2022/11/14 02:36:44;;;;;;;69.20;37.30;;;6.40;99.90;;;;;;5039720;28;20291;-69
2022/11/14 02:39:10;;;;;;;67.50;36.97;;;6.60;99.90;;;;;;5045006;28;20045;-68
2022/11/14 02:41:36;;;;;;;64.35;35.42;;;6.40;99.90;;;;;;5049495;28;20036;-69
2022/11/14 02:44:01;;;;;;;63.67;36.22;;;6.40;99.90;;;;;;5046112;28;20059;-68
2022/11/14 02:46:27;;;;;;;64.38;35.42;;;6.40;99.90;;;;;;5030129;28;20048;-69
2022/11/14 02:48:53;;;;;;;62.28;34.90;;;6.40;99.90;;;;;;5049367;28;20044;-69
2022/11/14 02:51:18;;;;;;;61.88;35.22;;;6.50;99.90;;;;;;5032298;28;20318;-70
2022/11/14 02:53:44;;;;;;;65.50;35.42;;;6.40;99.90;;;;;;5047263;28;20306;-69
2022/11/14 02:56:10;;;;;;;68.70;36.47;;;6.40;99.90;;;;;;5053064;28;20396;-68
2022/11/14 02:58:35;;;;;;;69.32;36.75;;;6.40;99.90;;;;;;5049779;28;20032;-69
2022/11/14 03:01:01;;;;;;;63.90;35.65;;;6.40;99.90;;;;;;5043554;28;20045;-69
2022/11/14 03:03:27;;;;;;;68.72;36.53;;;6.40;99.90;;;;;;5052558;28;20052;-69
2022/11/14 03:05:58;;;;;;;67.22;35.42;;;6.40;99.90;;;;;;5038062;28;20044;-69
2022/11/14 03:08:24;;;;;;;62.05;35.47;;;6.40;99.90;;;;;;5047624;28;20067;-69
2022/11/14 03:10:49;;;;;;;69.30;36.22;;;6.40;99.90;;;;;;5030564;28;20454;-68
2022/11/14 03:13:15;;;;;;;66.93;36.35;;;6.40;99.90;;;;;;5055485;28;20048;-68
2022/11/14 03:15:41;;;;;;;71.93;37.92;;;6.40;99.90;;;;;;5045982;28;20679;-68
2022/11/14 03:18:07;;;;;;;67.13;35.42;;;6.40;99.90;;;;;;5048572;28;20044;-68
2022/11/14 03:20:33;;;;;;;69.80;35.45;;;6.40;99.90;;;;;;5066225;28;20036;-69
2022/11/14 03:22:59;;;;;;;65.50;33.63;;;6.50;99.90;;;;;;5044960;28;20397;-69
2022/11/14 03:25:25;;;;;;;63.95;34.78;;;6.40;99.90;;;;;;5065362;28;20044;-69
2022/11/14 03:27:51;;;;;;;69.88;34.45;;;6.40;99.90;;;;;;5047657;28;20132;-69
2022/11/14 03:30:17;;;;;;;69.60;34.45;;;6.50;99.90;;;;;;5030762;28;20048;-69
2022/11/14 03:32:43;;;;;;;65.68;35.83;;;6.50;99.90;;;;;;5031673;28;20068;-71
2022/11/14 03:35:09;;;;;;;67.25;35.25;;;6.50;99.90;;;;;;5067721;28;20068;-71
2022/11/14 03:37:35;;;;;;;66.53;35.45;;;6.50;99.90;;;;;;5037529;28;20443;-70
2022/11/14 03:40:01;;;;;;;69.10;35.80;;;6.50;99.90;;;;;;5061540;28;20036;-70
2022/11/14 03:42:27;;;;;;;70.55;37.25;;;6.50;99.90;;;;;;5064529;28;20119;-72
2022/11/14 03:44:53;;;;;;;67.03;34.97;;;6.50;99.90;;;;;;5067267;28;20127;-70
2022/11/14 03:47:19;;;;;;;67.85;35.47;;;6.50;99.90;;;;;;5049425;28;20110;-71
2022/11/14 03:49:44;;;;;;;66.28;35.28;;;6.50;99.90;;;;;;5035962;28;20036;-71
2022/11/14 03:52:11;;;;;;;65.13;34.65;;;7.10;99.90;;;;;;5036416;28;20423;-70
2022/11/14 03:54:37;;;;;;;64.07;34.80;;;6.50;99.90;;;;;;5067117;28;20056;-70
2022/11/14 03:57:03;;;;;;;68.20;34.15;;;6.50;99.90;;;;;;5053630;28;20059;-70
2022/11/14 03:59:29;;;;;;;61.90;33.33;;;6.50;99.90;;;;;;5033942;28;20438;-69
2022/11/14 04:01:55;;;;;;;60.53;34.97;;;6.50;99.90;;;;;;5051447;28;20102;-70
2022/11/14 04:04:21;;;;;;;60.47;33.38;;;6.50;99.90;;;;;;5047517;28;20089;-70
2022/11/14 04:06:47;;;;;;;64.97;34.83;;;6.50;99.90;;;;;;5039897;28;20075;-70
2022/11/14 04:09:12;;;;;;;64.68;34.58;;;6.50;99.90;;;;;;5070199;28;20043;-70
2022/11/14 04:11:38;;;;;;;62.20;34.42;;;6.50;99.90;;;;;;5070317;28;20162;-70
2022/11/14 04:14:04;;;;;;;64.03;35.38;;;6.50;99.90;;;;;;5049460;28;20044;-70
2022/11/14 04:16:30;;;;;;;67.22;35.70;;;6.50;99.90;;;;;;5048945;28;20070;-70
2022/11/14 04:18:56;;;;;;;63.13;35.58;;;6.50;99.90;;;;;;5053050;28;20041;-70
2022/11/14 04:21:22;;;;;;;62.60;34.80;;;6.50;99.90;;;;;;5033307;28;20040;-71
2022/11/14 04:23:48;;;;;;;65.20;35.28;;;6.50;99.90;;;;;;5049666;28;20440;-70
2022/11/14 04:26:14;;;;;;;64.88;35.83;;;6.40;99.90;;;;;;5051215;28;20078;-69
2022/11/14 04:28:39;;;;;;;62.35;32.40;;;6.50;99.90;;;;;;5047831;28;20398;-69
2022/11/14 04:31:05;;;;;;;61.45;33.97;;;6.50;99.90;;;;;;5048866;28;20105;-69
2022/11/14 04:33:31;;;;;;;62.10;35.20;;;6.50;99.90;;;;;;5051758;28;20032;-69
2022/11/14 04:35:56;;;;;;;59.90;33.70;;;6.50;99.90;;;;;;5052901;28;20043;-69
2022/11/14 04:38:22;;;;;;;58.50;33.60;;;6.50;99.90;;;;;;5068822;28;20044;-69
2022/11/14 04:40:52;;;;;;;58.80;34.33;;;6.50;99.90;;;;;;5030542;28;21449;-68
2022/11/14 04:43:20;;;;;;;63.90;34.60;;;6.40;99.90;;;;;;5050030;28;20044;-68
2022/11/14 04:45:46;;;;;;;59.00;34.60;;;6.40;99.90;;;;;;5034427;28;20049;-68
2022/11/14 04:48:12;;;;;;;63.75;32.97;;;6.40;99.90;;;;;;5051180;28;20430;-68
2022/11/14 04:50:38;;;;;;;63.83;34.17;;;7.00;99.90;;;;;;5051206;28;20037;-68
2022/11/14 04:53:04;;;;;;;64.55;35.03;;;6.40;99.90;;;;;;5051484;28;20040;-69
2022/11/14 04:55:30;;;;;;;61.55;33.85;;;6.40;99.90;;;;;;5035878;28;20052;-70
2022/11/14 04:57:56;;;;;;;64.50;36.30;;;6.40;99.90;;;;;;5031747;28;20052;-68
2022/11/14 05:00:23;;;;;;;61.28;34.03;;;6.90;99.90;;;;;;5047400;28;20040;-69
2022/11/14 05:02:49;;;;;;;59.83;34.17;;;6.40;99.90;;;;;;5030270;28;20138;-69
2022/11/14 05:05:15;;;;;;;63.85;34.40;;;6.20;99.90;;;;;;5069452;28;20097;-69
2022/11/14 05:07:41;;;;;;;59.38;33.65;;;6.40;99.90;;;;;;5047612;28;20110;-69
2022/11/14 05:10:07;;;;;;;55.85;33.83;;;6.60;99.90;;;;;;5033953;28;20040;-69
2022/11/14 05:12:33;;;;;;;60.90;33.75;;;6.40;99.90;;;;;;5029541;28;20490;-69
2022/11/14 05:14:59;;;;;;;61.40;33.80;;;6.40;99.90;;;;;;5051910;28;20046;-69
2022/11/14 05:17:25;;;;;;;66.53;34.60;;;6.40;99.90;;;;;;5032259;28;20505;-69
2022/11/14 05:19:51;;;;;;;63.55;35.25;;;6.40;99.90;;;;;;5050241;28;20123;-69
2022/11/14 05:22:17;;;;;;;60.17;33.60;;;6.40;99.90;;;;;;5067012;28;20438;-69
2022/11/14 05:24:42;;;;;;;60.15;34.00;;;6.40;99.90;;;;;;5048526;28;20052;-71
2022/11/14 05:27:08;;;;;;;59.05;34.22;;;6.40;99.90;;;;;;5031898;28;20094;-71
2022/11/14 05:29:34;;;;;;;62.17;34.92;;;6.50;99.90;;;;;;5051139;28;20378;-70
2022/11/14 05:32:00;;;;;;;60.97;33.85;;;6.40;99.90;;;;;;5047159;28;20470;-71
2022/11/14 05:34:25;;;;;;;60.60;34.35;;;6.90;99.90;;;;;;5047742;28;20048;-71
2022/11/14 05:36:51;;;;;;;58.90;32.63;;;6.40;99.90;;;;;;5052790;28;20043;-71
2022/11/14 05:39:17;;;;;;;55.85;32.80;;;6.40;99.90;;;;;;5045441;28;20036;-71
2022/11/14 05:41:43;;;;;;;59.03;34.35;;;6.50;99.90;;;;;;5052688;28;20190;-71
2022/11/14 05:44:08;;;;;;;60.17;34.25;;;6.90;99.90;;;;;;5037055;28;20073;-71
2022/11/14 05:46:34;;;;;;;60.72;34.42;;;6.40;99.90;;;;;;5046422;28;20455;-71
2022/11/14 05:49:00;;;;;;;62.13;35.67;;;6.40;99.90;;;;;;5046483;28;20036;-71
2022/11/14 05:51:26;;;;;;;63.05;35.10;;;6.30;99.90;;;;;;5043172;28;20055;-71
2022/11/14 05:53:52;;;;;;;67.38;36.90;;;6.30;99.90;;;;;;5062223;28;20051;-71
2022/11/14 05:56:18;;;;;;;62.53;34.13;;;6.40;99.90;;;;;;5028530;28;20037;-71
2022/11/14 05:58:44;;;;;;;59.67;34.03;;;6.30;99.90;;;;;;5062870;28;20039;-71
2022/11/14 06:01:15;;;;;;;62.88;34.05;;;6.30;99.90;;;;;;5032784;28;20052;-71
2022/11/14 06:03:44;;;;;;;60.50;34.33;;;6.30;99.90;;;;;;5062531;28;20048;-71
2022/11/14 06:06:13;;;;;;;64.22;35.47;;;6.30;99.90;;;;;;5028809;28;20052;-70
2022/11/14 06:08:39;;;;;;;63.10;35.47;;;6.30;99.90;;;;;;5043874;28;20043;-70
2022/11/14 06:11:08;;;;;;;63.47;34.72;;;6.30;99.90;;;;;;5040206;28;20399;-70
2022/11/14 06:13:34;;;;;;;65.13;36.22;;;6.30;99.90;;;;;;5041550;28;20044;-70
2022/11/14 06:16:02;;;;;;;62.95;34.50;;;6.30;99.90;;;;;;5062226;28;20175;-70
2022/11/14 06:18:30;;;;;;;57.53;33.05;;;6.30;99.90;;;;;;5028233;28;20072;-70
2022/11/14 06:21:01;;;;;;;62.08;34.45;;;6.30;99.90;;;;;;5058875;28;20110;-70
2022/11/14 06:23:27;;;;;;;62.30;34.85;;;6.30;99.90;;;;;;5043159;28;20311;-71
2022/11/14 06:26:05;;;;;;;68.05;36.42;;;6.30;99.90;;;;;;5059022;28;20050;-70
2022/11/14 06:28:32;;;;;;;61.65;34.15;;;6.30;99.90;;;;;;5027830;28;20349;-70
2022/11/14 06:31:02;;;;;;;62.95;34.55;;;6.80;99.90;;;;;;5061473;28;20076;-70
2022/11/14 06:33:32;;;;;;;60.58;35.15;;;6.20;99.90;;;;;;5058042;28;20599;-70
2022/11/14 06:36:03;;;;;;;63.45;35.08;;;6.30;99.90;;;;;;5061551;28;20055;-70
2022/11/14 06:38:33;;;;;;;62.55;33.70;;;6.30;99.90;;;;;;5060404;28;20494;-70
2022/11/14 06:41:17;;;;;;;61.43;33.20;;;6.30;99.90;;;;;;5040296;28;20044;-70
2022/11/14 06:43:45;;;;;;;58.20;33.17;;;6.20;99.90;;;;;;5042587;28;20298;-70
2022/11/14 06:46:14;;;;;;;68.38;35.83;;;6.20;99.90;;;;;;5040990;28;20669;-71
2022/11/14 06:48:41;;;;;;;60.42;33.40;;;6.30;99.90;;;;;;5042662;28;21363;-71
2022/11/14 06:51:07;;;;;;;64.93;35.25;;;6.20;99.90;;;;;;5055448;28;20037;-70
2022/11/14 06:53:34;;;;;;;65.72;33.60;;;6.10;99.90;;;;;;5014944;28;20067;-69
2022/11/14 06:56:02;;;;;;;58.78;33.03;;;6.70;99.90;;;;;;5027816;28;20072;-69
2022/11/14 06:58:40;;;;;;;67.68;36.42;;;6.10;99.90;;;;;;5046689;28;20044;-70
2022/11/14 07:01:16;;;;;;;66.30;35.15;;;6.10;99.90;;;;;;5029510;28;20040;-70
2022/11/14 07:03:43;;;;;;;62.47;35.35;;;6.10;99.90;;;;;;5027689;28;20052;-70
2022/11/14 07:06:13;;;;;;;69.03;35.22;;;6.10;99.90;;;;;;5029110;28;20505;-70
2022/11/14 07:08:39;;;;;;;72.82;36.70;;;6.70;99.90;;;;;;5024339;28;20389;-70
2022/11/14 07:11:22;;;;;;;65.85;34.92;;;6.10;99.90;;;;;;5017241;28;20178;-71
2022/11/14 07:13:57;;;;;;;67.10;35.53;;;6.10;99.90;;;;;;5046770;28;20771;-70
2022/11/14 07:16:49;;;;;;;67.60;35.70;;;6.10;99.90;;;;;;5036371;28;20160;-70
2022/11/14 07:19:14;;;;;;;68.95;34.67;;;6.30;99.90;;;;;;5028149;28;20056;-70
2022/11/14 07:21:40;;;;;;;66.55;35.30;;;6.10;99.90;;;;;;5030490;28;20045;-70
2022/11/14 07:24:06;;;;;;;68.47;34.72;;;6.30;99.90;;;;;;5033665;28;20048;-70
2022/11/14 07:26:32;;;;;;;68.80;35.60;;;6.00;99.90;;;;;;5052458;28;20246;-72
2022/11/14 07:28:58;;;;;;;68.38;35.38;;;6.00;99.90;;;;;;5034153;28;20051;-71
2022/11/14 07:31:24;;;;;;;63.80;34.53;;;6.00;99.90;;;;;;5037092;28;20037;-72
2022/11/14 07:33:50;;;;;;;68.68;35.50;;;6.00;99.90;;;;;;5052885;28;20041;-71
2022/11/14 07:36:16;;;;;;;65.18;35.22;;;6.00;99.90;;;;;;5049427;28;21560;-71
2022/11/14 07:38:42;;;;;;;66.22;35.58;;;6.00;99.90;;;;;;5033338;28;20052;-71
2022/11/14 07:41:09;;;;;;;65.72;34.67;;;6.00;99.90;;;;;;5036139;28;20051;-72
2022/11/14 07:43:35;;;;;;;66.85;34.17;;;6.00;99.90;;;;;;5029642;28;20629;-71
2022/11/14 07:46:05;;;;;;;69.43;34.83;;;6.00;99.90;;;;;;5047646;28;20049;-71
2022/11/14 07:48:31;;;;;;;70.80;35.63;;;6.00;99.90;;;;;;5033708;28;20124;-71
2022/11/14 07:50:59;;;;;;;68.68;33.25;;;5.90;99.90;;;;;;5017620;28;20094;-71
2022/11/14 07:53:25;;;;;;;71.10;35.45;;;6.50;99.90;;;;;;5038181;28;20139;-71
2022/11/14 07:55:51;;;;;;;72.10;36.70;;;5.90;99.90;;;;;;5052997;28;20059;-71
2022/11/14 07:58:17;;;;;;;73.75;35.72;;;5.90;99.90;;;;;;5042986;28;20074;-72
2022/11/14 08:00:43;;;;;;;70.85;35.05;;;5.80;99.90;;;;;;5036298;28;20789;-72
2022/11/14 08:03:09;;;;;;;68.60;34.58;;;5.80;99.90;;;;;;5035166;28;20053;-71
2022/11/14 08:05:35;;;;;;;70.75;33.97;;;5.90;99.90;;;;;;5038858;28;20149;-71
2022/11/14 08:08:01;;;;;;;72.90;35.53;;;5.80;99.90;;;;;;5041387;28;20048;-71
2022/11/14 08:10:27;;;;;;;70.45;34.55;;;5.80;99.90;;;;;;5021312;28;20042;-72
2022/11/14 08:13:02;;;;;;;69.00;34.47;;;5.80;99.90;;;;;;5017185;28;20055;-71
2022/11/14 08:15:28;;;;;;;77.25;36.38;;;5.80;99.90;;;;;;5050685;28;20557;-72
2022/11/14 08:18:01;;;;;;;68.82;34.17;;;6.00;99.90;;;;;;5054905;28;20044;-71
2022/11/14 08:20:27;;;;;;;69.57;36.00;;;5.90;99.90;;;;;;5037545;28;20101;-71
2022/11/14 08:22:53;;;;;;;69.68;33.17;;;6.20;99.90;;;;;;5043222;28;20162;-71
2022/11/14 08:25:19;;;;;;;66.90;33.85;;;5.90;99.90;;;;;;5042024;28;20043;-71
2022/11/14 08:27:45;;;;;;;65.07;33.67;;;5.80;99.90;;;;;;5056355;28;20405;-69
2022/11/14 08:30:11;;;;;;;68.38;33.72;;;5.90;99.90;;;;;;5037064;28;21177;-71
2022/11/14 08:32:37;;;;;;;68.78;34.63;;;5.90;99.90;;;;;;5024287;28;20580;-70
2022/11/14 08:35:03;;;;;;;68.55;34.42;;;5.90;99.90;;;;;;5056797;28;20075;-70
2022/11/14 08:37:29;;;;;;;67.70;34.08;;;5.90;99.90;;;;;;5061408;28;20035;-71
2022/11/14 08:39:55;;;;;;;72.03;36.05;;;5.90;99.90;;;;;;5055845;28;20044;-70
2022/11/14 08:42:20;;;;;;;71.47;35.20;;;5.90;99.90;;;;;;5034265;28;20044;-71
2022/11/14 08:44:46;;;;;;;69.60;34.33;;;5.90;99.90;;;;;;5054366;28;20187;-71
2022/11/14 08:47:12;;;;;;;70.75;34.80;;;5.90;99.90;;;;;;5037333;28;20055;-71
2022/11/14 08:49:38;;;;;;;72.45;34.85;;;5.90;99.90;;;;;;5020829;28;20055;-70
2022/11/14 08:52:04;;;;;;;72.15;35.78;;;5.90;99.90;;;;;;5033626;28;20049;-70
2022/11/14 08:54:29;;;;;;;70.88;34.70;;;6.00;99.90;;;;;;5047019;28;20072;-71
2022/11/14 08:56:55;;;;;;;68.95;34.72;;;6.00;99.90;;;;;;5015470;28;20049;-70
2022/11/14 08:59:21;;;;;;;63.47;32.83;;;6.00;99.90;;;;;;5026178;28;20470;-70
2022/11/14 09:01:46;;;;;;;63.47;33.08;;;6.00;99.90;;;;;;5027480;28;20072;-70
2022/11/14 09:04:12;;;;;;;63.97;32.97;;;6.10;99.90;;;;;;5024820;28;20049;-70
2022/11/14 09:06:38;;;;;;;64.53;34.92;;;6.10;99.90;;;;;;5030787;28;20044;-71
2022/11/14 09:09:04;;;;;;;61.72;32.83;;;6.10;99.90;;;;;;5035043;28;20037;-71
2022/11/14 09:11:29;;;;;;;64.15;34.08;;;6.10;99.90;;;;;;5034030;28;20173;-71
2022/11/14 09:13:55;;;;;;;65.38;34.65;;;6.10;99.90;;;;;;5028933;28;21224;-69
2022/11/14 09:16:20;;;;;;;72.53;36.70;;;6.10;99.90;;;;;;5013740;28;20289;-70
2022/11/14 09:18:46;;;;;;;70.75;35.53;;;6.40;99.90;;;;;;5011436;28;20049;-70
2022/11/14 09:21:12;;;;;;;63.80;33.80;;;6.10;99.90;;;;;;5021099;28;20148;-70
2022/11/14 09:23:38;;;;;;;60.78;33.45;;;6.10;99.90;;;;;;5023486;28;20049;-70
2022/11/14 09:26:08;;;;;;;60.88;33.00;;;6.10;99.90;;;;;;5030065;28;20124;-70
2022/11/14 09:28:33;;;;;;;62.67;33.78;;;6.10;99.90;;;;;;5029007;28;20509;-70
2022/11/14 09:31:05;;;;;;;64.00;33.30;;;6.30;99.90;;;;;;5027061;28;20052;-70
2022/11/14 09:33:31;;;;;;;;;;;6.20;99.90;;;;;;5025483;28;20049;-70
2022/11/14 09:35:58;;;;;;;62.30;32.03;;;6.10;99.90;;;;;;5027210;28;20305;-69
2022/11/14 09:38:24;;;;;;;59.92;33.03;;;6.20;99.90;;;;;;5025344;28;20048;-70
2022/11/14 09:41:00;;;;;;;67.10;34.70;;;6.20;99.90;;;;;;5027749;28;20235;-70
2022/11/14 09:43:47;;;;;;;59.30;32.58;;;6.20;99.90;;;;;;5026966;28;20041;-70
2022/11/14 09:46:22;;;;;;;60.53;32.92;;;6.30;99.90;;;;;;5044082;28;20037;-69
2022/11/14 09:48:50;;;;;;;63.78;33.05;;;6.30;99.90;;;;;;5023487;28;20044;-71
2022/11/14 09:51:20;;;;;;;61.45;31.73;;;6.30;99.90;;;;;;5026108;28;20046;-70
2022/11/14 09:54:20;;;;;;;58.50;32.22;;;6.50;99.90;;;;;;5022839;28;20045;-70
2022/11/14 09:56:46;;;;;;;62.85;33.25;;;6.30;99.90;;;;;;5021237;28;20040;-70
2022/11/14 09:59:13;;;;;;;62.17;33.90;;;6.30;99.90;;;;;;5045740;28;20072;-70
2022/11/14 10:01:59;;;;;;;61.25;32.47;;;6.30;99.90;;;;;;5023501;28;20032;-70
2022/11/14 10:04:49;;;;;;;66.05;33.65;;;6.40;99.90;;;;;;5021320;28;20072;-70
2022/11/14 10:07:45;;;;;;;60.80;32.85;;;6.40;99.90;;;;;;5030704;28;20053;-70
2022/11/14 10:10:46;;;;;;;57.17;31.45;;;6.40;99.90;;;;;;5011751;28;20441;-71
2022/11/14 10:13:39;;;;;;;60.20;31.27;;;6.40;99.90;;;;;;4993326;28;20068;-70
2022/11/14 10:16:10;;;;;;;59.75;32.80;;;6.50;99.90;;;;;;5037948;28;20056;-69
2022/11/14 10:19:01;;;;;;;60.83;32.95;;;6.50;99.90;;;;;;5026984;28;20056;-70
2022/11/14 10:21:52;;;;;;;56.15;31.27;;;7.00;99.90;;;;;;5026731;28;20103;-70
2022/11/14 10:24:40;;;;;;;62.40;33.17;;;6.60;99.90;;;;;;5031756;28;20143;-69
2022/11/14 10:27:15;;;;;;;54.22;31.95;;;6.60;99.90;;;;;;5026994;28;20168;-70
2022/11/14 10:30:02;;;;;;;59.63;31.67;;;7.10;99.90;;;;;;5026912;28;20357;-69
2022/11/14 10:32:45;;;;;;;61.05;33.35;;;6.70;99.90;;;;;;5024238;28;20068;-70
2022/11/14 10:35:35;;;;;;;63.50;32.78;;;6.70;99.90;;;;;;5026419;28;20207;-70
2022/11/14 10:38:06;;;;;;;57.53;31.98;;;6.80;99.90;;;;;;5027242;28;20048;-70
2022/11/14 10:40:48;;;;;;;54.17;31.42;;;7.30;99.90;;;;;;5025140;28;20091;-70
2022/11/14 10:43:14;;;;;;;;;;;6.90;99.90;;;;;;5024034;28;20042;-70
2022/11/14 10:45:45;;;;;;;54.72;31.38;;;6.90;99.90;;;;;;5027557;28;19929;-70
2022/11/14 10:48:18;;;;;;;54.90;30.90;;;7.00;99.90;;;;;;5027000;28;20070;-69
2022/11/14 10:51:00;;;;;;;56.95;32.80;;;7.00;99.90;;;;;;5028575;28;20461;-70
2022/11/14 10:53:37;;;;;;;55.45;31.65;;;7.10;99.90;;;;;;5028391;28;20485;-69
2022/11/14 10:56:03;;;;;;;56.28;31.52;;;7.10;99.90;;;;;;5027132;28;20099;-70
2022/11/14 10:58:29;;;;;;;54.13;30.98;;;7.20;99.90;;;;;;5025904;28;20049;-69
2022/11/14 11:00:54;;;;;;;55.95;31.52;;;7.40;99.90;;;;;;5027233;28;20605;-70
2022/11/14 11:03:40;;;;;;;52.30;30.40;;;7.30;99.90;;;;;;5032495;28;20493;-70
2022/11/14 11:06:23;;;;;;;51.65;29.52;;;7.40;99.90;;;;;;5042152;28;20412;-69
2022/11/14 11:11:33;;;;;;;54.47;29.35;;;7.30;99.90;;;;;;5061159;28;20515;-69
2022/11/14 11:14:00;;;;;;;54.15;29.85;;;7.30;99.90;;;;;;5042780;28;20147;-69
2022/11/14 11:16:27;;;;;;;49.35;28.70;;;7.30;99.90;;;;;;5041301;28;20049;-69
2022/11/14 11:19:11;;;;;;;56.33;31.25;;;7.30;99.90;;;;;;5044730;28;20079;-70
2022/11/14 11:21:48;;;;;;;56.00;31.33;;;7.30;99.90;;;;;;5026969;28;20444;-69
2022/11/14 11:24:30;;;;;;;54.90;32.15;;;7.30;99.90;;;;;;5044322;28;20110;-69
2022/11/14 11:27:13;;;;;;;52.53;29.92;;;7.40;99.90;;;;;;5035221;28;20041;-68
2022/11/14 11:29:39;;;;;;;52.92;31.23;;;7.30;99.90;;;;;;5048612;28;21737;-69
2022/11/14 11:32:07;;;;;;;51.17;30.60;;;7.30;99.90;;;;;;5014496;28;20044;-69
2022/11/14 11:34:33;;;;;;;50.22;29.92;;;7.50;99.90;;;;;;5047671;28;20123;-70
2022/11/14 11:37:14;;;;;;;49.40;29.05;;;7.40;99.90;;;;;;5013564;28;20098;-69
2022/11/14 11:39:46;;;;;;;47.30;27.60;;;7.40;99.90;;;;;;5029854;28;20470;-69
2022/11/14 11:42:20;;;;;;;49.67;27.88;;;7.40;99.90;;;;;;5046991;28;20440;-70
2022/11/14 11:44:52;;;;;;;45.72;27.27;;;7.40;99.90;;;;;;5047115;28;20492;-69
2022/11/14 11:47:18;;;;;;;48.65;27.85;;;7.40;99.90;;;;;;5030081;28;20106;-69
2022/11/14 11:49:47;;;;;;;48.58;27.70;;;7.80;99.90;;;;;;5026375;28;20718;-69
2022/11/14 11:52:17;;;;;;;46.05;27.90;;;7.40;99.90;;;;;;5048862;28;20320;-70
2022/11/14 11:54:57;;;;;;;46.40;27.60;;;7.40;99.90;;;;;;5034736;28;20067;-69
2022/11/14 11:57:38;;;;;;;46.58;27.02;;;7.40;99.90;;;;;;5031766;28;21072;-70
2022/11/14 12:00:13;;;;;;;47.50;27.70;;;7.40;99.90;;;;;;5034061;28;20458;-70
2022/11/14 12:02:43;;;;;;;46.50;28.30;;;7.50;99.90;;;;;;5048716;28;20547;-70
2022/11/14 12:05:21;;;;;;;48.70;28.45;;;7.50;99.90;;;;;;5031506;28;20720;-69
2022/11/14 12:07:57;;;;;;;46.70;26.80;;;7.50;99.90;;;;;;5032936;28;20101;-70
2022/11/14 12:10:28;;;;;;;47.53;28.15;;;7.60;99.90;;;;;;5057266;28;20047;-70
2022/11/14 12:13:00;;;;;;;;;;;7.60;99.90;;;;;;5043372;28;20082;-69
2022/11/14 12:15:35;;;;;;;41.58;24.60;;;7.60;99.90;;;;;;5023335;28;20351;-69
2022/11/14 12:18:42;;;;;;;47.05;26.70;;;7.60;99.90;;;;;;5040869;28;20417;-70
2022/11/14 12:21:25;;;;;;;43.22;25.77;;;7.70;99.90;;;;;;5040121;28;20262;-70
2022/11/14 12:23:57;;;;;;;43.53;26.38;;;7.70;99.90;;;;;;5033094;28;20561;-69
2022/11/14 12:26:32;;;;;;;47.53;27.55;;;7.70;99.90;;;;;;5049207;28;20493;-70
2022/11/14 12:29:25;;;;;;;44.85;27.42;;;7.70;99.90;;;;;;5033283;28;20612;-69
2022/11/14 12:31:58;;;;;;;42.30;25.92;;;7.80;99.90;;;;;;5032767;28;20428;-69
2022/11/14 12:34:29;;;;;;;46.35;27.25;;;7.80;99.90;;;;;;5041560;28;20555;-70
2022/11/14 12:36:55;;;;;;;47.20;27.27;;;7.80;99.90;;;;;;5039412;28;20741;-69
2022/11/14 12:39:27;;;;;;;49.35;28.25;;;8.00;99.90;;;;;;5020479;28;20052;-70
2022/11/14 12:42:05;;;;;;;46.75;27.17;;;7.90;99.90;;;;;;5048382;28;20083;-70
2022/11/14 12:44:37;;;;;;;48.17;27.85;;;7.90;99.90;;;;;;5034815;28;20055;-69
2022/11/14 12:47:06;;;;;;;44.85;26.60;;;8.00;99.90;;;;;;5017812;28;20119;-70
2022/11/14 12:49:47;;;;;;;43.80;25.73;;;7.90;99.90;;;;;;5038118;28;20391;-70
2022/11/14 12:52:34;;;;;;;43.60;26.77;;;8.00;99.90;;;;;;5035704;28;20041;-70